Terminal Aerodrome Forecast
Issued by NWS

Home | Current Version | Previous Version | Text Only | Print | Product List | Glossary On
Versions: 1 2 3 4 5 6 7 8 9 10 11 12 13 14 15 16 17 18 19 20
965
FTUS43 KGRR 111152
TAFAZO
TAF
KAZO 111152Z 1112/1212 32009KT P6SM -SN OVC040
     FM111500 31009KT 6SM -SHSN OVC035
     FM120000 23007KT P6SM -SN BKN040
     FM121100 24010KT 4SM -SHSN BR OVC030=

USA.gov is the U.S. government's official web portal to all federal, state and local government web resources and services.